createdAt,value
2019-03-22T00:00:47.777Z,37.28
2019-03-22T00:01:34.208Z,33.02
2019-03-22T00:02:20.822Z,37.80
2019-03-22T00:03:07.180Z,41.95
2019-03-22T00:03:53.904Z,35.08
2019-03-22T00:04:40.675Z,34.88
2019-03-22T00:05:27.392Z,35.13
2019-03-22T00:06:14.199Z,36.58
2019-03-22T00:07:00.737Z,37.15
2019-03-22T00:07:48.606Z,42.93
2019-03-22T00:08:35.564Z,37.65
2019-03-22T00:09:22.039Z,41.58
2019-03-22T00:10:08.768Z,38.40
2019-03-22T00:10:55.241Z,37.73
2019-03-22T00:11:41.920Z,37.35
2019-03-22T00:12:28.501Z,42.65
2019-03-22T00:13:14.743Z,37.93
2019-03-22T00:14:00.989Z,41.48
2019-03-22T00:14:47.411Z,44.80
2019-03-22T00:15:34.051Z,45.50
2019-03-22T00:16:20.679Z,38.55
2019-03-22T00:17:06.910Z,37.23
2019-03-22T00:17:53.598Z,37.03
2019-03-22T00:18:39.960Z,41.73
2019-03-22T00:19:26.577Z,40.17
2019-03-22T00:20:12.963Z,38.53
2019-03-22T00:20:59.674Z,39.78
2019-03-22T00:21:46.336Z,35.40
2019-03-22T00:22:33.026Z,40.00
2019-03-22T00:23:19.798Z,42.15
2019-03-22T00:24:06.342Z,39.50
2019-03-22T00:24:52.790Z,45.63
2019-03-22T00:25:39.532Z,42.85
2019-03-22T00:26:25.804Z,46.13
2019-03-22T00:27:16.687Z,41.35
2019-03-22T00:28:00.396Z,40.40
2019-03-22T00:28:47.060Z,44.75
2019-03-22T00:29:33.307Z,40.15
2019-03-22T00:30:19.588Z,41.92
2019-03-22T00:31:05.870Z,39.95
2019-03-22T00:31:52.139Z,41.85
2019-03-22T00:32:38.507Z,46.50
2019-03-22T00:33:24.847Z,40.85
2019-03-22T00:34:11.575Z,42.48
2019-03-22T00:34:57.975Z,39.75
2019-03-22T00:35:44.780Z,43.30
2019-03-22T00:36:31.607Z,41.80
2019-03-22T00:37:18.016Z,46.20
2019-03-22T00:38:04.555Z,42.65
2019-03-22T00:38:51.481Z,44.67
2019-03-22T00:39:38.112Z,36.70
2019-03-22T00:40:24.459Z,37.25
2019-03-22T00:41:10.730Z,41.30
2019-03-22T00:41:57.516Z,38.25
2019-03-22T00:42:43.953Z,40.20
2019-03-22T00:43:30.627Z,39.53
2019-03-22T00:44:16.795Z,43.08
2019-03-22T00:45:03.303Z,42.93
2019-03-22T00:45:49.810Z,40.60
2019-03-22T00:46:35.948Z,40.40
2019-03-22T00:47:22.224Z,38.78
2019-03-22T00:48:08.424Z,38.65
2019-03-22T00:48:55.280Z,46.92
2019-03-22T00:49:41.712Z,42.35
2019-03-22T00:50:27.962Z,41.75
2019-03-22T00:51:14.624Z,42.53
2019-03-22T00:52:01.361Z,37.65
2019-03-22T00:52:48.018Z,38.35
2019-03-22T00:53:34.311Z,44.88
2019-03-22T00:54:20.503Z,41.40
2019-03-22T00:55:07.504Z,44.13
2019-03-22T00:55:53.944Z,42.75
2019-03-22T00:56:40.159Z,39.18
2019-03-22T00:57:28.793Z,40.12
2019-03-22T00:58:15.119Z,38.75
2019-03-22T00:59:01.773Z,40.92
2019-03-22T00:59:48.390Z,41.85
2019-03-22T01:00:35.226Z,40.33
2019-03-22T01:01:21.789Z,43.17
2019-03-22T01:02:08.519Z,42.70
2019-03-22T01:02:54.738Z,43.78
2019-03-22T01:03:40.911Z,44.58
2019-03-22T01:04:27.186Z,42.78
2019-03-22T01:05:14.773Z,41.30
2019-03-22T01:06:01.035Z,41.05
2019-03-22T01:06:47.858Z,39.25
2019-03-22T01:07:34.140Z,44.70
2019-03-22T01:08:20.407Z,41.15
2019-03-22T01:09:06.661Z,43.50
2019-03-22T01:09:52.950Z,47.78
2019-03-22T01:10:39.323Z,39.45
2019-03-22T01:11:26.081Z,42.03
2019-03-22T01:12:12.371Z,39.40
2019-03-22T01:12:59.092Z,38.70
2019-03-22T01:13:45.347Z,41.08
2019-03-22T01:14:31.670Z,39.15
2019-03-22T01:15:18.063Z,42.83
2019-03-22T01:16:04.979Z,39.40
2019-03-22T01:16:51.913Z,43.45
2019-03-22T01:17:38.619Z,43.23
2019-03-22T01:18:24.991Z,40.63
2019-03-22T01:19:11.745Z,42.90
2019-03-22T01:19:58.601Z,40.28
2019-03-22T01:20:45.327Z,38.15
2019-03-22T01:21:32.307Z,44.05
2019-03-22T01:22:19.038Z,37.08
2019-03-22T01:23:05.787Z,45.50
2019-03-22T01:23:52.667Z,40.92
2019-03-22T01:24:38.881Z,47.85
2019-03-22T01:25:25.600Z,43.75
2019-03-22T01:26:12.269Z,41.10
2019-03-22T01:26:58.550Z,45.67
2019-03-22T01:27:45.329Z,49.67
2019-03-22T01:28:31.937Z,44.70
2019-03-22T01:29:18.166Z,47.67
2019-03-22T01:30:05.832Z,41.13
2019-03-22T01:30:52.646Z,39.88
2019-03-22T01:31:39.232Z,40.52
2019-03-22T01:32:25.947Z,39.27
2019-03-22T01:33:12.616Z,41.73
2019-03-22T01:33:59.601Z,38.02
2019-03-22T01:34:46.249Z,38.90
2019-03-22T01:35:32.796Z,42.38
2019-03-22T01:36:19.023Z,38.90
2019-03-22T01:37:05.224Z,37.28
2019-03-22T01:37:51.452Z,38.10
2019-03-22T01:38:38.154Z,39.05
2019-03-22T01:39:24.530Z,37.63
2019-03-22T01:40:11.814Z,42.93
2019-03-22T01:40:58.362Z,41.75
2019-03-22T01:41:44.608Z,43.78
2019-03-22T01:42:31.278Z,41.77
2019-03-22T01:43:17.491Z,42.90
2019-03-22T01:44:03.738Z,40.20
2019-03-22T01:44:50.443Z,41.28
2019-03-22T01:45:39.630Z,39.95
2019-03-22T01:46:26.436Z,42.13
2019-03-22T01:47:12.559Z,36.50
2019-03-22T01:47:58.793Z,35.88
2019-03-22T01:48:45.082Z,37.40
2019-03-22T01:49:31.705Z,36.85
2019-03-22T01:50:18.286Z,41.92
2019-03-22T01:51:04.590Z,38.80
2019-03-22T01:51:51.229Z,43.23
2019-03-22T01:56:59.550Z,37.15
2019-03-22T01:57:53.130Z,47.50
2019-03-22T01:58:34.736Z,43.48
2019-03-22T01:59:21.435Z,41.42
2019-03-22T02:00:08.748Z,38.63
2019-03-22T02:00:55.016Z,40.90
2019-03-22T02:03:31.168Z,38.25
2019-03-22T02:04:17.665Z,40.05
2019-03-22T02:05:05.562Z,36.50
2019-03-22T02:05:52.386Z,40.90
2019-03-22T02:06:38.648Z,39.48
2019-03-22T02:07:24.963Z,38.33
2019-03-22T02:08:11.212Z,39.78
2019-03-22T02:08:57.589Z,40.65
2019-03-22T02:09:43.997Z,40.85
2019-03-22T02:10:30.743Z,46.42
2019-03-22T02:11:17.592Z,38.23
2019-03-22T02:12:04.397Z,37.30
2019-03-22T02:12:50.706Z,36.98
2019-03-22T02:13:37.026Z,37.55
2019-03-22T02:14:23.247Z,44.05
2019-03-22T02:15:12.146Z,37.15
2019-03-22T02:15:58.773Z,48.25
2019-03-22T02:16:45.118Z,38.95
2019-03-22T02:17:31.988Z,39.25
2019-03-22T02:18:18.742Z,41.98
2019-03-22T02:19:05.031Z,35.25
2019-03-22T02:19:51.880Z,38.08
2019-03-22T02:20:38.721Z,38.60
2019-03-22T02:21:25.386Z,42.30
2019-03-22T02:22:11.568Z,38.55
2019-03-22T02:22:57.871Z,40.70
2019-03-22T02:23:44.591Z,36.05
2019-03-22T02:24:31.409Z,35.38
2019-03-22T02:25:17.912Z,38.60
2019-03-22T02:26:04.109Z,38.63
2019-03-22T02:26:50.368Z,40.08
2019-03-22T02:27:36.564Z,40.90
2019-03-22T02:28:23.529Z,38.55
2019-03-22T02:29:10.037Z,35.65
2019-03-22T02:29:56.244Z,38.15
2019-03-22T02:30:42.446Z,36.58
2019-03-22T02:31:28.681Z,37.85
2019-03-22T02:32:14.833Z,39.30
2019-03-22T02:33:01.194Z,37.55
2019-03-22T02:33:47.823Z,38.70
2019-03-22T02:34:33.992Z,40.70
2019-03-22T02:35:28.970Z,39.20
2019-03-22T02:36:08.441Z,38.17
2019-03-22T02:36:54.602Z,38.50
2019-03-22T02:37:41.497Z,38.65
2019-03-22T02:38:28.162Z,39.88
2019-03-22T02:39:14.429Z,42.93
2019-03-22T02:40:01.123Z,43.05
2019-03-22T02:40:47.847Z,42.35
2019-03-22T02:41:34.419Z,38.02
2019-03-22T02:42:20.901Z,38.15
2019-03-22T02:43:07.130Z,39.60
2019-03-22T02:43:54.915Z,41.02
2019-03-22T02:44:41.750Z,39.13
2019-03-22T02:45:27.978Z,39.30
2019-03-22T02:46:14.250Z,42.43
2019-03-22T02:47:01.069Z,40.33
2019-03-22T02:47:47.804Z,37.23
2019-03-22T02:48:34.590Z,38.60
2019-03-22T02:49:20.917Z,42.00
2019-03-22T02:50:18.099Z,35.43
2019-03-22T02:50:56.544Z,38.00
2019-03-22T02:51:43.301Z,41.98
2019-03-22T02:52:29.578Z,38.80
2019-03-22T02:53:15.974Z,35.05
2019-03-22T02:54:02.281Z,38.25
2019-03-22T02:54:49.170Z,43.33
2019-03-22T02:55:35.868Z,38.85
2019-03-22T02:56:22.136Z,36.98
2019-03-22T02:57:08.455Z,40.33
2019-03-22T02:57:55.425Z,38.25
2019-03-22T02:58:42.173Z,41.18
2019-03-22T02:59:28.667Z,41.42
2019-03-22T03:00:15.703Z,40.30
2019-03-22T03:01:02.386Z,41.60
2019-03-22T03:01:49.162Z,41.23
2019-03-22T03:02:35.550Z,44.53
2019-03-22T03:03:21.933Z,37.25
2019-03-22T03:04:08.215Z,37.85
2019-03-22T03:04:55.148Z,41.80
2019-03-22T03:05:41.891Z,35.52
2019-03-22T03:06:28.100Z,41.37
2019-03-22T03:07:15.709Z,37.40
2019-03-22T03:08:02.234Z,39.20
2019-03-22T03:08:48.912Z,40.75
2019-03-22T03:09:35.140Z,42.70
2019-03-22T03:10:21.421Z,35.90
2019-03-22T03:11:07.991Z,41.10
2019-03-22T03:11:54.720Z,35.45
2019-03-22T03:12:40.907Z,37.98
2019-03-22T03:13:27.627Z,38.10
2019-03-22T03:14:13.842Z,41.98
2019-03-22T03:15:00.026Z,37.30
2019-03-22T03:15:46.721Z,37.25
2019-03-22T03:16:33.427Z,40.63
2019-03-22T03:17:20.122Z,43.75
2019-03-22T03:18:06.363Z,42.03
2019-03-22T03:18:53.026Z,37.23
2019-03-22T03:19:39.714Z,36.05
2019-03-22T03:20:25.956Z,36.10
2019-03-22T03:21:12.726Z,36.33
2019-03-22T03:21:59.329Z,35.70
2019-03-22T03:22:46.129Z,39.40
2019-03-22T03:23:32.765Z,37.08
2019-03-22T03:24:19.324Z,36.08
2019-03-22T03:25:06.881Z,34.83
2019-03-22T03:25:53.293Z,35.75
2019-03-22T03:26:40.051Z,37.58
2019-03-22T03:27:26.307Z,38.15
2019-03-22T03:28:12.687Z,34.25
2019-03-22T03:28:59.321Z,34.60
2019-03-22T03:29:45.574Z,35.35
2019-03-22T03:30:32.205Z,37.75
2019-03-22T03:31:18.997Z,41.40
2019-03-22T03:32:05.639Z,38.17
2019-03-22T03:32:52.226Z,39.90
2019-03-22T03:33:38.924Z,39.60
2019-03-22T03:34:25.505Z,33.02
2019-03-22T03:35:12.289Z,36.40
2019-03-22T03:35:58.856Z,38.53
2019-03-22T03:36:45.544Z,36.20
2019-03-22T03:37:32.099Z,36.98
2019-03-22T03:38:18.931Z,40.08
2019-03-22T03:39:07.426Z,35.70
2019-03-22T03:39:54.022Z,35.20
2019-03-22T03:40:40.671Z,31.45
2019-03-22T03:41:27.012Z,35.03
2019-03-22T03:42:13.248Z,42.75
2019-03-22T03:42:59.636Z,39.08
2019-03-22T03:43:45.908Z,38.60
2019-03-22T03:44:32.218Z,37.63
2019-03-22T03:45:32.877Z,38.73
2019-03-22T03:46:19.398Z,35.78
2019-03-22T03:47:05.760Z,38.53
2019-03-22T03:47:51.962Z,40.95
2019-03-22T03:48:38.248Z,34.70
2019-03-22T03:49:24.932Z,36.93
2019-03-22T03:50:11.828Z,35.50
2019-03-22T03:50:58.440Z,40.00
2019-03-22T03:51:44.628Z,38.23
2019-03-22T03:52:30.910Z,38.33
2019-03-22T03:53:17.596Z,34.65
2019-03-22T03:54:03.840Z,39.08
2019-03-22T03:54:50.103Z,38.63
2019-03-22T03:55:36.907Z,40.08
2019-03-22T03:56:23.392Z,36.42
2019-03-22T03:57:09.567Z,41.95
2019-03-22T03:57:55.786Z,36.58
2019-03-22T03:58:52.291Z,37.63
2019-03-22T03:59:30.188Z,37.50
2019-03-22T04:00:16.455Z,40.55
2019-03-22T04:01:03.171Z,36.70
2019-03-22T04:01:49.871Z,40.28
2019-03-22T04:02:36.681Z,34.75
2019-03-22T04:03:23.299Z,43.17
2019-03-22T04:04:09.540Z,37.50
2019-03-22T04:04:55.703Z,37.48
2019-03-22T04:05:42.588Z,36.83
2019-03-22T04:06:29.072Z,36.88
2019-03-22T04:07:15.746Z,37.50
2019-03-22T04:08:01.964Z,40.43
2019-03-22T04:08:48.236Z,36.40
2019-03-22T04:09:34.608Z,39.85
2019-03-22T04:10:21.286Z,41.63
2019-03-22T04:11:08.110Z,35.23
2019-03-22T04:11:54.559Z,37.42
2019-03-22T04:12:41.299Z,37.75
2019-03-22T04:13:27.559Z,37.93
2019-03-22T04:14:13.845Z,34.08
2019-03-22T04:15:00.163Z,37.40
2019-03-22T04:15:47.017Z,33.18
2019-03-22T04:16:33.814Z,39.27
2019-03-22T04:17:20.203Z,35.58
2019-03-22T04:18:07.156Z,35.08
2019-03-22T04:18:53.931Z,33.02
2019-03-22T04:19:40.734Z,36.75
2019-03-22T04:20:27.121Z,35.50
2019-03-22T04:21:13.507Z,32.28
2019-03-22T04:22:00.362Z,34.63
2019-03-22T04:22:46.763Z,40.25
2019-03-22T04:23:33.500Z,33.50
2019-03-22T04:24:19.747Z,41.25
2019-03-22T04:25:06.220Z,38.05
2019-03-22T04:25:52.680Z,39.25
2019-03-22T04:26:39.322Z,40.33
2019-03-22T04:27:25.518Z,33.13
2019-03-22T04:28:11.741Z,36.80
2019-03-22T04:29:07.498Z,33.08
2019-03-22T04:29:46.632Z,37.48
2019-03-22T04:30:33.501Z,34.43
2019-03-22T04:31:19.724Z,32.78
2019-03-22T04:32:05.952Z,39.18
2019-03-22T04:32:52.655Z,35.88
2019-03-22T04:33:39.371Z,33.23
2019-03-22T04:34:25.611Z,35.43
2019-03-22T04:35:30.800Z,35.45
2019-03-22T04:36:17.272Z,33.08
2019-03-22T04:37:03.488Z,34.05
2019-03-22T04:37:49.695Z,35.33
2019-03-22T04:38:35.953Z,35.90
2019-03-22T04:39:22.623Z,33.48
2019-03-22T04:40:21.661Z,33.90
2019-03-22T04:41:08.248Z,35.45
2019-03-22T04:41:54.429Z,35.70
2019-03-22T04:42:40.619Z,33.08
2019-03-22T04:43:26.887Z,30.77
2019-03-22T04:44:13.116Z,37.98
2019-03-22T04:44:59.411Z,32.20
2019-03-22T04:45:46.795Z,30.35
2019-03-22T04:46:33.613Z,32.63
2019-03-22T04:47:20.861Z,31.62
2019-03-22T04:48:13.146Z,31.62
2019-03-22T04:49:00.132Z,33.13
2019-03-22T04:49:47.923Z,30.50
2019-03-22T04:50:37.002Z,32.20
2019-03-22T04:51:24.416Z,34.15
2019-03-22T04:52:11.382Z,31.52
2019-03-22T04:52:58.996Z,32.93
2019-03-22T04:53:52.140Z,33.28
2019-03-22T04:54:40.524Z,36.95
2019-03-22T04:55:27.982Z,34.73
2019-03-22T04:56:18.214Z,32.48
2019-03-22T04:57:07.369Z,37.63
2019-03-22T04:57:53.988Z,37.10
2019-03-22T04:58:42.840Z,28.12
2019-03-22T04:59:30.392Z,33.05
2019-03-22T05:00:17.348Z,29.72
2019-03-22T05:01:04.926Z,30.23
2019-03-22T05:01:54.714Z,29.25
2019-03-22T05:02:42.003Z,31.12
2019-03-22T05:03:29.951Z,29.35
2019-03-22T05:04:17.691Z,32.28
2019-03-22T05:05:04.545Z,29.57
2019-03-22T05:05:51.685Z,34.48
2019-03-22T05:06:38.839Z,33.23
2019-03-22T05:07:25.254Z,36.65
2019-03-22T05:08:13.087Z,36.70
2019-03-22T05:09:00.560Z,31.70
2019-03-22T05:09:48.102Z,37.05
2019-03-22T05:10:35.567Z,36.25
2019-03-22T05:11:23.217Z,39.92
2019-03-22T05:12:14.149Z,41.18
2019-03-22T05:13:01.231Z,38.42
2019-03-22T05:13:51.676Z,36.68
2019-03-22T05:14:39.948Z,36.15
2019-03-22T05:15:27.461Z,40.90
2019-03-22T05:16:16.035Z,37.05
2019-03-22T05:17:05.016Z,36.45
2019-03-22T05:17:52.096Z,39.50
2019-03-22T05:18:40.001Z,42.60
2019-03-22T05:19:30.067Z,39.53
2019-03-22T05:20:17.820Z,37.83
2019-03-22T05:21:05.066Z,39.38
2019-03-22T05:21:52.719Z,35.20
2019-03-22T05:22:41.463Z,40.45
2019-03-22T05:23:29.518Z,40.35
2019-03-22T05:24:18.350Z,39.20
2019-03-22T05:25:05.159Z,34.58
2019-03-22T05:25:54.702Z,38.48
2019-03-22T05:26:41.609Z,38.00
2019-03-22T05:27:29.131Z,37.17
2019-03-22T05:28:16.024Z,38.55
2019-03-22T05:29:03.658Z,34.75
2019-03-22T05:29:53.455Z,36.30
2019-03-22T05:31:22.145Z,36.63
2019-03-22T05:32:10.579Z,41.18
2019-03-22T05:32:57.019Z,35.80
2019-03-22T05:33:43.783Z,34.95
2019-03-22T05:34:30.195Z,34.78
2019-03-22T05:35:16.657Z,34.20
2019-03-22T05:36:03.364Z,37.45
2019-03-22T05:36:49.609Z,31.30
2019-03-22T05:37:36.304Z,34.10
2019-03-22T05:38:23.155Z,35.63
2019-03-22T05:39:10.250Z,31.87
2019-03-22T05:39:56.945Z,36.75
2019-03-22T05:40:43.460Z,32.88
2019-03-22T05:41:29.713Z,32.13
2019-03-22T05:42:16.026Z,31.97
2019-03-22T05:43:02.849Z,33.50
2019-03-22T05:43:49.525Z,29.55
2019-03-22T05:44:36.162Z,34.63
2019-03-22T05:45:22.452Z,32.00
2019-03-22T05:46:08.706Z,36.95
2019-03-22T05:46:55.672Z,35.55
2019-03-22T05:47:42.552Z,37.35
2019-03-22T05:48:29.621Z,34.08
2019-03-22T05:49:16.113Z,34.75
2019-03-22T05:50:03.516Z,33.88
2019-03-22T05:50:50.106Z,35.17
2019-03-22T05:51:36.939Z,36.55
2019-03-22T05:52:23.796Z,38.55
2019-03-22T05:53:10.077Z,34.13
2019-03-22T05:53:56.935Z,33.88
2019-03-22T05:54:43.344Z,36.55
2019-03-22T05:55:29.666Z,37.60
2019-03-22T05:56:15.963Z,38.17
2019-03-22T05:57:12.760Z,38.33
2019-03-22T05:57:51.157Z,39.35
2019-03-22T05:58:37.909Z,35.68
2019-03-22T05:59:24.796Z,36.40
2019-03-22T06:00:13.432Z,37.17
2019-03-22T06:00:59.949Z,36.53
2019-03-22T06:01:46.300Z,43.78
2019-03-22T06:02:32.725Z,42.00
2019-03-22T06:03:19.467Z,36.17
2019-03-22T06:04:06.324Z,39.33
2019-03-22T06:04:52.660Z,42.15
2019-03-22T06:05:38.978Z,43.13
2019-03-22T06:06:25.276Z,41.70
2019-03-22T06:07:12.031Z,39.60
2019-03-22T06:07:59.132Z,40.33
2019-03-22T06:08:45.725Z,40.75
2019-03-22T06:09:31.971Z,43.25
2019-03-22T06:10:18.124Z,40.28
2019-03-22T06:11:04.325Z,46.68
2019-03-22T06:11:50.582Z,37.40
2019-03-22T06:12:37.211Z,36.93
2019-03-22T06:13:23.415Z,39.18
2019-03-22T06:14:10.111Z,38.40
2019-03-22T06:14:56.858Z,39.20
2019-03-22T06:15:43.493Z,39.48
2019-03-22T06:16:29.753Z,39.73
2019-03-22T06:17:16.445Z,35.52
2019-03-22T06:18:03.150Z,38.48
2019-03-22T06:18:50.432Z,34.58
2019-03-22T06:19:37.027Z,35.88
2019-03-22T06:20:23.181Z,38.90
2019-03-22T06:21:09.369Z,36.33
2019-03-22T06:21:55.983Z,33.30
2019-03-22T06:22:42.708Z,35.30
2019-03-22T06:23:28.864Z,34.95
2019-03-22T06:24:15.016Z,29.67
2019-03-22T06:25:01.179Z,35.45
2019-03-22T06:25:48.023Z,36.77
2019-03-22T06:26:34.240Z,39.70
2019-03-22T06:27:21.040Z,36.98
2019-03-22T06:28:07.265Z,38.70
2019-03-22T06:28:53.551Z,37.50
2019-03-22T06:29:39.931Z,36.50
2019-03-22T06:30:26.571Z,38.50
2019-03-22T06:31:12.875Z,40.38
2019-03-22T06:31:59.778Z,40.17
2019-03-22T06:32:46.581Z,37.83
2019-03-22T06:33:32.851Z,38.42
2019-03-22T06:34:19.133Z,43.55
2019-03-22T06:35:06.096Z,42.50
2019-03-22T06:35:52.726Z,40.30
2019-03-22T06:36:39.213Z,42.60
2019-03-22T06:37:25.903Z,45.52
2019-03-22T06:38:12.378Z,42.70
2019-03-22T06:38:58.826Z,45.15
2019-03-22T06:39:45.106Z,39.75
2019-03-22T06:40:31.447Z,39.18
2019-03-22T06:41:18.265Z,40.70
2019-03-22T06:42:05.008Z,40.30
2019-03-22T06:42:51.229Z,39.88
2019-03-22T06:43:37.496Z,40.50
2019-03-22T06:44:23.684Z,40.28
2019-03-22T06:45:09.976Z,37.90
2019-03-22T06:45:56.435Z,41.80
2019-03-22T06:46:42.611Z,39.18
2019-03-22T06:47:28.893Z,38.08
2019-03-22T06:48:15.478Z,43.50
2019-03-22T06:49:02.359Z,41.90
2019-03-22T06:49:48.973Z,42.05
2019-03-22T06:50:35.534Z,36.48
2019-03-22T06:51:21.675Z,38.25
2019-03-22T06:52:07.875Z,36.30
2019-03-22T06:52:54.603Z,48.65
2019-03-22T06:53:40.809Z,38.55
2019-03-22T06:54:31.778Z,38.90
2019-03-22T06:55:15.172Z,38.53
2019-03-22T06:56:01.452Z,39.50
2019-03-22T06:56:47.655Z,40.45
2019-03-22T06:57:33.892Z,37.65
2019-03-22T06:58:20.248Z,45.08
2019-03-22T06:59:07.011Z,37.95
2019-03-22T07:00:05.537Z,34.83
2019-03-22T07:00:41.877Z,42.48
2019-03-22T07:01:28.546Z,36.83
2019-03-22T07:02:15.224Z,44.03
2019-03-22T07:03:01.548Z,36.15
2019-03-22T07:03:48.311Z,36.13
2019-03-22T07:04:34.678Z,36.20
2019-03-22T07:05:20.866Z,36.30
2019-03-22T07:06:07.211Z,37.42
2019-03-22T07:06:53.620Z,36.15
2019-03-22T07:07:40.218Z,37.28
2019-03-22T07:08:26.931Z,37.45
2019-03-22T07:09:13.294Z,37.00
2019-03-22T07:09:59.563Z,42.38
2019-03-22T07:10:45.954Z,36.65
2019-03-22T07:11:32.710Z,37.15
2019-03-22T07:12:19.039Z,41.15
2019-03-22T07:13:05.398Z,34.45
2019-03-22T07:13:52.301Z,33.23
2019-03-22T07:14:38.678Z,39.58
2019-03-22T07:15:25.037Z,34.80
2019-03-22T07:16:11.282Z,35.08
2019-03-22T07:16:58.900Z,36.38
2019-03-22T07:17:45.615Z,35.92
2019-03-22T07:18:32.414Z,34.23
2019-03-22T07:19:19.210Z,35.05
2019-03-22T07:20:05.847Z,35.38
2019-03-22T07:20:52.135Z,40.45
2019-03-22T07:21:38.770Z,33.42
2019-03-22T07:22:25.010Z,32.20
2019-03-22T07:23:11.270Z,36.00
2019-03-22T07:23:57.894Z,37.55
2019-03-22T07:24:44.712Z,34.92
2019-03-22T07:25:31.345Z,40.28
2019-03-22T07:26:17.579Z,33.30
2019-03-22T07:27:04.021Z,34.65
2019-03-22T07:27:50.469Z,31.50
2019-03-22T07:28:36.697Z,38.80
2019-03-22T07:29:22.818Z,36.73
2019-03-22T07:30:18.136Z,33.05
2019-03-22T07:30:57.408Z,30.02
2019-03-22T07:31:44.053Z,33.28
2019-03-22T07:32:30.314Z,33.58
2019-03-22T07:33:16.733Z,34.55
2019-03-22T07:34:03.677Z,29.07
2019-03-22T07:34:50.055Z,29.72
2019-03-22T07:35:36.809Z,26.82
2019-03-22T07:36:23.502Z,31.30
2019-03-22T07:37:09.799Z,29.07
2019-03-22T07:37:56.601Z,27.07
2019-03-22T07:38:43.278Z,28.42
2019-03-22T07:39:30.035Z,27.25
2019-03-22T07:40:16.297Z,28.15
2019-03-22T07:41:02.589Z,32.03
2019-03-22T07:41:49.276Z,30.97
2019-03-22T07:42:35.775Z,30.68
2019-03-22T07:43:22.375Z,31.02
2019-03-22T07:44:09.102Z,28.23
2019-03-22T07:44:55.726Z,29.12
2019-03-22T07:45:42.615Z,34.98
2019-03-22T07:46:28.957Z,29.65
2019-03-22T07:47:15.640Z,25.60
2019-03-22T07:48:02.315Z,26.68
2019-03-22T07:48:50.788Z,25.02
2019-03-22T07:49:37.603Z,30.68
2019-03-22T07:50:24.141Z,27.40
2019-03-22T07:51:10.719Z,23.90
2019-03-22T07:51:57.481Z,24.87
2019-03-22T07:52:44.150Z,25.50
2019-03-22T07:53:31.241Z,26.48
2019-03-22T07:54:17.905Z,23.83
2019-03-22T07:55:04.931Z,28.23
2019-03-22T07:55:51.373Z,22.30
2019-03-22T07:56:38.107Z,26.13
2019-03-22T07:57:24.959Z,28.37
2019-03-22T07:58:11.638Z,23.57
2019-03-22T07:58:58.492Z,20.37
2019-03-22T07:59:46.416Z,20.57
2019-03-22T08:00:36.021Z,23.80
2019-03-22T08:01:22.497Z,25.23
2019-03-22T08:02:11.015Z,25.50
2019-03-22T08:02:57.980Z,25.27
2019-03-22T08:03:44.501Z,25.00
2019-03-22T08:04:31.312Z,21.40
2019-03-22T08:05:18.123Z,22.57
2019-03-22T08:06:04.787Z,26.97
2019-03-22T08:06:51.592Z,24.97
2019-03-22T08:07:38.471Z,22.23
2019-03-22T08:08:25.008Z,22.87
2019-03-22T08:09:11.664Z,21.13
2019-03-22T08:09:58.153Z,20.80
2019-03-22T08:10:44.750Z,22.70
2019-03-22T08:11:31.534Z,23.17
2019-03-22T08:12:19.502Z,23.27
2019-03-22T08:13:05.971Z,20.43
2019-03-22T08:13:52.710Z,20.37
2019-03-22T08:14:39.441Z,20.97
2019-03-22T08:15:30.570Z,25.27
2019-03-22T08:16:16.918Z,21.73
2019-03-22T08:17:03.719Z,23.60
2019-03-22T08:17:50.254Z,23.13
2019-03-22T08:18:36.553Z,24.10
2019-03-22T08:19:23.189Z,25.57
2019-03-22T08:20:09.942Z,21.37
2019-03-22T08:20:56.668Z,21.90
2019-03-22T08:21:43.089Z,24.43
2019-03-22T08:22:29.365Z,19.87
2019-03-22T08:23:20.564Z,21.83
2019-03-22T08:24:07.095Z,20.47
2019-03-22T08:24:53.413Z,21.23
2019-03-22T08:25:43.383Z,21.67
2019-03-22T08:26:28.400Z,24.27
2019-03-22T08:27:15.206Z,19.30
2019-03-22T08:28:01.776Z,27.77
2019-03-22T08:28:48.474Z,19.87
2019-03-22T08:29:35.186Z,20.13
2019-03-22T08:30:21.998Z,19.53
2019-03-22T08:31:08.695Z,20.37
2019-03-22T08:31:55.352Z,19.52
2019-03-22T08:32:41.530Z,23.53
2019-03-22T08:33:28.820Z,17.33
2019-03-22T08:34:15.399Z,17.60
2019-03-22T08:35:02.058Z,23.67
2019-03-22T08:35:48.717Z,18.87
2019-03-22T08:36:34.875Z,19.25
2019-03-22T08:37:21.155Z,20.15
2019-03-22T08:38:11.583Z,20.32
2019-03-22T08:38:58.272Z,16.07
2019-03-22T08:39:44.939Z,18.60
2019-03-22T08:40:33.512Z,19.77
2019-03-22T08:41:20.270Z,16.12
2019-03-22T08:42:07.210Z,18.05
2019-03-22T08:42:53.513Z,14.55
2019-03-22T08:43:40.168Z,16.60
2019-03-22T08:44:26.792Z,15.68
2019-03-22T08:45:13.573Z,15.95
2019-03-22T08:46:00.224Z,15.25
2019-03-22T08:46:46.709Z,17.67
2019-03-22T08:47:34.640Z,18.30
2019-03-22T08:48:21.403Z,16.70
2019-03-22T08:49:09.662Z,15.95
2019-03-22T08:49:56.447Z,16.05
2019-03-22T08:50:43.040Z,15.45
2019-03-22T08:51:29.979Z,17.85
2019-03-22T08:52:16.520Z,16.52
2019-03-22T08:53:03.334Z,15.35
2019-03-22T08:53:55.196Z,15.68
2019-03-22T08:54:38.608Z,14.55
2019-03-22T08:55:25.149Z,14.50
2019-03-22T08:56:11.848Z,14.50
2019-03-22T08:56:58.496Z,14.30
2019-03-22T08:57:45.217Z,18.67
2019-03-22T08:58:31.820Z,18.42
2019-03-22T08:59:18.448Z,16.15
2019-03-22T09:00:06.426Z,15.90
2019-03-22T09:00:57.630Z,17.62
2019-03-22T09:01:41.643Z,18.70
2019-03-22T09:02:28.253Z,18.40
2019-03-22T09:03:15.061Z,19.60
2019-03-22T09:04:03.681Z,18.87
2019-03-22T09:04:50.332Z,21.30
2019-03-22T09:05:37.255Z,19.75
2019-03-22T09:06:24.036Z,17.52
2019-03-22T09:07:10.339Z,17.45
2019-03-22T09:07:56.801Z,17.77
2019-03-22T09:08:43.513Z,15.53
2019-03-22T09:09:40.883Z,16.45
2019-03-22T09:10:19.258Z,16.45
2019-03-22T09:11:08.420Z,19.20
2019-03-22T09:11:55.204Z,16.23
2019-03-22T09:12:41.762Z,17.40
2019-03-22T09:13:28.386Z,16.77
2019-03-22T09:14:14.911Z,16.23
2019-03-22T09:15:01.490Z,15.58
2019-03-22T09:15:48.147Z,15.48
2019-03-22T09:16:34.601Z,15.83
2019-03-22T09:17:22.124Z,15.63
2019-03-22T09:18:08.974Z,14.83
2019-03-22T09:18:55.904Z,17.62
2019-03-22T09:19:42.692Z,17.48
2019-03-22T09:20:29.580Z,15.08
2019-03-22T09:21:16.725Z,15.15
2019-03-22T09:22:06.331Z,20.97
2019-03-22T09:22:53.146Z,16.25
2019-03-22T09:23:39.676Z,18.60
2019-03-22T09:24:38.546Z,18.50
2019-03-22T09:25:15.274Z,13.90
2019-03-22T09:26:02.042Z,13.70
2019-03-22T09:26:48.519Z,18.17
2019-03-22T09:27:36.537Z,16.48
2019-03-22T09:28:25.099Z,17.15
2019-03-22T09:29:11.813Z,15.63
2019-03-22T09:29:58.559Z,14.93
2019-03-22T09:30:44.891Z,14.55
2019-03-22T09:31:31.503Z,15.32
2019-03-22T09:32:17.698Z,15.85
2019-03-22T09:33:04.614Z,17.37
2019-03-22T09:33:51.222Z,16.45
2019-03-22T09:34:38.015Z,15.53
2019-03-22T09:35:24.619Z,20.60
2019-03-22T09:36:11.300Z,15.43
2019-03-22T09:36:57.545Z,17.25
2019-03-22T09:37:44.232Z,16.60
2019-03-22T09:38:30.857Z,13.75
2019-03-22T09:39:17.066Z,14.53
2019-03-22T09:40:04.147Z,16.32
2019-03-22T09:40:50.819Z,14.55
2019-03-22T09:41:37.106Z,16.77
2019-03-22T09:42:23.715Z,15.03
2019-03-22T09:43:09.984Z,15.43
2019-03-22T09:43:56.736Z,19.92
2019-03-22T09:44:44.210Z,13.65
2019-03-22T09:45:31.265Z,16.45
2019-03-22T09:46:17.431Z,14.23
2019-03-22T09:47:04.233Z,14.23
2019-03-22T09:47:50.926Z,17.02
2019-03-22T09:48:37.589Z,17.20
2019-03-22T09:49:23.842Z,15.98
2019-03-22T09:50:10.332Z,15.75
2019-03-22T09:50:56.920Z,14.60
2019-03-22T09:51:43.708Z,15.90
2019-03-22T09:52:30.404Z,16.32
2019-03-22T09:53:16.993Z,13.95
2019-03-22T09:54:03.786Z,14.93
2019-03-22T09:54:50.052Z,13.50
2019-03-22T09:55:36.467Z,16.50
2019-03-22T09:56:23.246Z,14.58
2019-03-22T09:57:10.078Z,14.47
2019-03-22T09:57:57.083Z,15.15
2019-03-22T09:58:43.560Z,15.50
2019-03-22T09:59:29.852Z,14.43
2019-03-22T10:00:28.851Z,13.65
2019-03-22T10:01:23.602Z,16.90
2019-03-22T10:02:03.258Z,14.63
2019-03-22T10:02:49.984Z,16.10
2019-03-22T10:03:36.638Z,13.55
2019-03-22T10:04:23.091Z,13.78
2019-03-22T10:05:09.603Z,12.82
2019-03-22T10:05:56.305Z,12.40
2019-03-22T10:06:42.910Z,12.82
2019-03-22T10:07:29.544Z,15.53
2019-03-22T10:08:15.751Z,14.85
2019-03-22T10:09:05.244Z,15.48
2019-03-22T10:09:50.083Z,15.75
2019-03-22T10:10:36.714Z,14.73